San Miguel de Tucuman, Argentina
Current Conditions -  °F | °C
As of 1:00 AM on Wednesday 28 Jan 2015 (Local Time) from SANT Reporting Station
Clear Clear  
Wind Chill: 79°   Ceiling: Unl
Heat Index: 81°   Visibility: 6mi
Dew Point: 68°   Wind: 9mph
Humidity: 69%   Direction: 360°N
Pressure: 29.74"   Gusts: NA
Location:  26.83°S, 65.21°W
Report Text: SANT 280400Z 36008KT CAVOK 26/20 Q1007
Loading
Personal Weather Stations






























Interactive Weather Map New forecast layout! Learn more

10-Day Weather Forecast

Advertisements
Track Severe Weather on mobile